• Join FlightAware (Why Join?)
  • Login
  • US Flag 
Rudolph Flight #1: Arrived! 
06:40AM EST


 

Airport Tracker/Info


-or-


 

Live Flight TrackerFlight Track Log ✈ COM2865 ✈ 25-Apr-2012 ✈ KBUF - KJFK

Flight Track Log - Related Links

Times and Time Zones

All times are in EDT time to prevent confusion due to time zone crossing. See the COM2865 flight status page for this flight to view local times or setup timezone preferences in your user account.

Time Position Orientation Groundspeed Altitude Reporting Facility
EDT Latitude Longitude Course Direction KTS MPH feet Rate Location/Type
07:11AM 42.9167 -78.7667 200° South 179 206 2,700  Level Buffalo TRACON
07:12AM 42.8833 -78.7833 153° Southeast 196 226 4,400 2,520 Climbing Buffalo TRACON
07:12AM 42.8417 -78.7542 85° East 291 335 6,000 2,940 Climbing Cleveland Center
07:13AM 42.8483 -78.6406 89° East 310 357 9,700 2,700 Climbing Cleveland Center
07:14AM 42.8503 -78.5103 91° East 318 366 11,500 2,100 Climbing Cleveland Center
07:15AM 42.8475 -78.3631 92° East 358 412 13,900 2,280 Climbing Cleveland Center
07:16AM 42.8442 -78.2017 92° East 404 465 16,100 2,220 Climbing Cleveland Center
07:17AM 42.8408 -78.0406 91° East 420 483 18,400 1,920 Climbing Cleveland Center
07:18AM 42.8394 -77.8933 92° East 427 491 20,000 1,800 Climbing Cleveland Center
07:19AM 42.8353 -77.7206 92° East 446 513 22,100 1,860 Climbing Cleveland Center
07:20AM 42.8308 -77.5453 91° East 451 519 23,800 1,440 Climbing Cleveland Center
07:22AM 42.8272 -77.2678 92° East 464 534 25,900 1,500 Climbing Boston Center
07:23AM 42.8225 -77.0861 104° East 477 549 27,700 1,800 Climbing Boston Center
07:24AM 42.7900 -76.9083 123° Southeast 478 550 29,500 1,500 Climbing Boston Center
07:25AM 42.7186 -76.7561 121° Southeast 472 543 30,800 720 Climbing Boston Center
07:26AM 42.6436 -76.5869 122° Southeast 483 556 31,000 60 Climbing Boston Center
07:27AM 42.5758 -76.4414 120° Southeast 469 540 31,000  Level Boston Center
07:28AM 42.5142 -76.2967 122° Southeast 457 526 31,000  Level Boston Center
07:29AM 42.4578 -76.1750 122° Southeast 437 503 31,000  Level Boston Center
07:30AM 42.3956 -76.0389 122° Southeast 432 497 31,000  Level Boston Center
07:31AM 42.3331 -75.9033 120° Southeast 432 497 31,000  Level Boston Center
07:32AM 42.2725 -75.7625 121° Southeast 432 497 31,000  Level Boston Center
07:33AM 42.2119 -75.6247 112° Southeast 432 497 31,000  Level Boston Center
07:34AM 42.1681 -75.4767 111° Southeast 426 490 31,000  Level Boston Center
07:35AM 42.1261 -75.3264 113° Southeast 422 486 31,000 -120 Level Boston Center
07:36AM 42.0797 -75.1786 112° Southeast 427 491 30,800 -600 Descending Boston Center
07:37AM 42.0353 -75.0286 111° Southeast 422 486 29,800 -1,020 Descending Boston Center
07:38AM 41.9908 -74.8758 113° Southeast 429 494 28,800 -900 Descending Boston Center
07:39AM 41.9419 -74.7206 113° Southeast 434 499 28,000 -420 Descending Boston Center
07:40AM 41.8947 -74.5681 113° Southeast 440 506 28,000  Level Boston Center
07:41AM 41.8417 -74.3992 148° Southeast 440 506 28,000 -1,500 Level Boston Center
07:43AM 41.6033 -74.2000 155° Southeast 414 476 22,900 -2,100 Descending New York Center
07:44AM 41.5194 -74.1486 154° Southeast 387 445 20,900 -1,440 Descending New York Center
07:45AM 41.4253 -74.0886 192° South 382 440 20,000 -480 Descending New York Center
07:46AM 41.3267 -74.1167 213° Southwest 359 413 20,000  Level New York Center
07:47AM 41.2411 -74.1897 204° Southwest 340 391 20,000  Level New York Center
07:48AM 41.1417 -74.2481 169° South 353 406 20,000  Level New York Center
07:49AM 41.0833 -74.2333 156° South 334 384 20,000 -600 Level New York TRACON
07:50AM 41.0000 -74.1833 163° South 324 373 19,000 -540 Descending New York TRACON
07:51AM 40.9167 -74.1500 156° South 321 369 19,000 -300 Level New York TRACON
07:52AM 40.8333 -74.1000 163° South 324 373 18,500 -1,320 Descending New York TRACON
07:53AM 40.7500 -74.0667 156° South 326 375 16,300 -2,280 Descending New York TRACON
07:54AM 40.6667 -74.0167 163° South 327 376 13,800 -1,740 Descending New York TRACON
07:55AM 40.5833 -73.9833 150° Southeast 303 349 13,000 -900 Descending New York TRACON
07:56AM 40.5167 -73.9333 136° Southeast 303 349 12,000 -1,380 Descending New York TRACON
07:57AM 40.4500 -73.8500 128° Southeast 296 341 10,200 -1,800 Descending New York TRACON
07:58AM 40.4000 -73.7667 114° Southeast 289 333 8,400 -1,860 Descending New York TRACON
07:59AM 40.3667 -73.6667 78° East 286 329 6,500 -1,800 Descending New York TRACON
08:00AM 40.3833 -73.5667 21° North 271 312 4,700 -1,200 Descending New York TRACON
08:01AM 40.4500 -73.5333 360° North 251 289 4,000 -660 Descending New York TRACON
08:02AM 40.5167 -73.5333 349° North 244 281 3,400 -540 Descending New York TRACON
08:03AM 40.5833 -73.5500 333° Northwest 239 275 3,000 -360 Descending New York TRACON
08:04AM 40.6333 -73.5833 311° West 210 242 2,700 -480 Descending New York TRACON
08:05AM 40.6667 -73.6333 294° West 172 198 2,100 -540 Descending New York TRACON
08:06AM 40.6833 -73.6833 270° West 161 185 1,700 -600 Descending New York TRACON
08:07AM 40.6833 -73.7333 270° West 133 153 900 -780 Descending New York TRACON